Main page
METAR-TAF:

METAR-TAF

Airports :

Alliance Municipal Airport

Alliance, Nebraska, United States

latitude: 42-03-26N, longitude: 102-48-00W, elevation: 3926 ft

Current weather observation

The report was made 20 minutes ago, at 13:53 UTC
Calm wind
Temperature 23°F
Humidity 79%
Pressure 29.87 in. Hg
Visibility: 10 miles
Clear sky

METAR: KAIA 291353Z AUTO 00000KT 10SM CLR M05/M08 A2987 RMK AO2 SLP144 T10501083

Time: 07:13 (14:13 UTC)

Forecast

The report was made 2 hours and 53 minutes ago, at 11:20 UTC
Forecast valid from 29 at 12 UTC to 01 at 12 UTC
Wind 8 mph from the West/Southwest
Visibility: 6 miles
Few clouds at a height of 25000 ft
From 29 at 1700 UTC
Wind 17 mph from the West with gusts up to 29 mph
Visibility: 6 miles
Few clouds at a height of 25000 ft
From 29 at 2300 UTC
Wind 13 mph from the West
Visibility: 6 miles
Few clouds at a height of 20000 ft

TAF: KAIA 291120Z 2912/0112 24007KT P6SM FEW250 FM291700 27015G25KT P6SM FEW250 FM292300 27011KT P6SM FEW200

Weather observations and forecasts of more than 4000 airports (METAR and TAF reports).

The available stations are represented by yellow and red dots on the map.

Hover mouse over dot to see the name of the station.

Then click to see weather observations and forecasts.

To change the map : click on the green buttons with a black cross to zoom in, on the green button with a dash to zoom out, or on the green arrows for adjacent maps.


METAR-TAF: